Latest Coastal Weather Observations for Groote Eylandt Airport

IDD60701

Issued at 7:51 pm CST Friday 24 February 2017 (issued every 10 minutes, with the page automatically refreshed every 10 minutes)

About coastal observations | Map of coastal stations | Coastal observations for NT | Marine services | Other Formats
Station Details ID: 014518 Name: GROOTE EYLANDT AIRPORT Lat: -13.97 Lon: 136.46 Height: 13.7 m
Data from the previous 72 hours. | See also: Recent months at Groote Eylandt Airport
Date/Time
CST
Temp
°C
Wind Pressure Rain since
9am
mm
Weather Cloud Vis
km
Sea
Height
m
Swell
Dir  Spd
kts
Gust
kts
hPa Trend Height
m
Period
s
Dir
24/07:30pm 27.4 S 3 4 1009.9 - 36.0 - - 10 - - - -
24/07:00pm 28.1 CALM 0 0 1009.5 - 36.0 - - 10 - - - -
24/06:30pm 29.3 E 3 4 1009.1 - 36.0 - - 10 - - - -
24/06:00pm 29.5 ESE 4 6 1008.6 - 36.0 - Mostly clear 10 - - - -
24/05:30pm 30.4 NNE 2 5 1008.7 - 36.0 - - 10 - - - -
24/05:00pm 30.4 SSE 3 5 1008.8 - 36.0 - - 10 - - - -
24/04:30pm 29.8 S 4 6 1008.7 - 35.8 - - 10 - - - -
24/04:00pm 28.7 S 3 6 1009.3 - 35.8 - - 10 - - - -
24/03:30pm 26.9 ENE 1 3 1009.8 - 35.8 - Partly cloudy 10 - - - -
24/03:00pm 25.7 E 4 7 1010.0 - 35.8 Showers Cloudy 10 - - - -
24/02:40pm 25.0 CALM 0 0 1010.2 - 35.4 - Partly cloudy 6 - - - -
24/02:30pm 25.1 NE 1 3 1010.4 - 34.6 - Partly cloudy 5 - - - -
24/02:15pm 25.4 SE 1 4 1010.7 - 31.6 - Partly cloudy 5 - - - -
24/02:00pm 25.3 SSE 5 7 1010.8 - 29.0 - Partly cloudy 10 - - - -
24/01:53pm 25.3 SSW 5 7 1010.8 - 29.0 - Partly cloudy 10 - - - -
24/01:30pm 24.8 SW 7 11 1011.1 - 27.2 - Partly cloudy 3 - - - -
24/01:20pm 24.8 W 8 12 1011.0 - 25.8 - Partly cloudy 3 - - - -
24/01:01pm 24.7 SSE 13 25 1011.0 - 20.2 - Partly cloudy 0.3 - - - -
24/01:00pm 24.7 SSE 13 25 1010.9 - 20.2 - Partly cloudy 0.5 - - - -
24/12:59pm 24.6 SE 13 25 1010.9 - 20.0 - Partly cloudy 0.5 - - - -
24/12:52pm 25.6 SE 10 25 1011.7 - 6.2 - Partly cloudy 4 - - - -
24/12:30pm 30.3 WNW 10 13 1010.9 - 0.0 - Partly cloudy 10 - - - -
24/12:00pm 30.6 WNW 8 11 1011.8 - 0.0 - Cloudy 10 - - - -
24/11:30am 30.9 WNW 9 12 1012.1 - 0.0 - Partly cloudy 10 - - - -
24/11:00am 31.3 NW 6 10 1012.4 - 0.0 - Partly cloudy 10 - - - -
24/10:30am 32.5 NNE 3 5 1012.5 - 0.0 - Partly cloudy 10 - - - -
24/10:00am 31.3 NE 4 7 1012.6 - 0.0 - Partly cloudy 10 - - - -
24/09:30am 31.0 NE 5 8 1012.7 - 0.0 - - 10 - - - -
24/09:00am 30.0 NE 7 9 1012.7 - 0.0 - - 10 - - - -
24/08:30am 29.5 NNE 6 7 1012.4 - 0.0 - - 10 - - - -
24/08:00am 28.7 CALM 0 0 1012.3 - 0.0 - - 10 - - - -
24/07:30am 27.0 CALM 0 0 1011.9 - 0.0 - - 10 - - - -
24/07:00am 25.5 ESE 2 4 1011.5 - 0.0 - - 10 - - - -
24/06:30am 25.2 E 5 6 1011.1 - 0.0 - - 10 - - - -
24/06:00am 25.6 E 5 5 1010.9 - 0.0 - - 10 - - - -
24/05:30am 25.7 E 3 4 1010.5 - 0.0 - Partly cloudy 10 - - - -
24/05:00am 25.8 ENE 3 3 1010.3 - 0.0 - Partly cloudy 10 - - - -
24/04:30am 25.8 ENE 4 5 1010.1 - 0.0 - Partly cloudy 10 - - - -
24/04:00am 25.8 CALM 0 0 1009.9 - 0.0 - - 10 - - - -
24/03:30am 26.0 ENE 2 3 1010.1 - 0.0 - - 10 - - - -
24/03:00am 26.2 ENE 1 3 1010.3 - 0.0 - - 10 - - - -
24/02:30am 26.4 E 5 5 1010.1 - 0.0 - - 10 - - - -
24/02:00am 26.7 E 4 5 1010.4 - 0.0 - - 10 - - - -
24/01:30am 26.9 E 5 6 1010.4 - 0.0 - - 10 - - - -
24/01:00am 27.0 ENE 5 6 1010.5 - 0.0 - - 10 - - - -
24/12:30am 26.9 ENE 5 6 1010.6 - 0.0 - - 10 - - - -
24/12:00am 27.1 ENE 5 6 1010.7 - 0.0 - - 10 - - - -
 
Date/Time
CST
Temp
°C
Wind Pressure Rain since
9am
mm
Weather Cloud Vis
km
Sea
Height
m
Swell
Dir  Spd
kts
Gust
kts
hPa Trend Height
m
Period
s
Dir
23/11:30pm 27.3 ENE 6 7 1010.8 - 0.0 - - 10 - - - -
23/11:00pm 27.3 E 6 6 1010.9 - 0.0 - - 10 - - - -
23/10:30pm 27.5 ENE 5 7 1010.6 - 0.0 - - 10 - - - -
23/10:00pm 27.7 E 5 6 1010.1 - 0.0 - - 10 - - - -
23/09:30pm 28.0 E 4 6 1009.6 - 0.0 - - 10 - - - -
23/09:00pm 28.3 ENE 6 7 1009.4 - 0.0 - - 10 - - - -
23/08:30pm 28.4 ENE 6 8 1008.9 - 0.0 - - 10 - - - -
23/08:00pm 28.7 NE 6 9 1008.4 - 0.0 - - 10 - - - -
23/07:30pm 29.0 NE 6 9 1008.2 - 0.0 - - 10 - - - -
23/07:00pm 29.2 NE 7 10 1007.7 - 0.0 - - 10 - - - -
23/06:30pm 29.8 ENE 7 11 1007.6 - 0.0 - - 10 - - - -
23/06:00pm 30.5 ENE 8 11 1007.5 - 0.0 - Mostly clear 10 - - - -
23/05:30pm 31.0 NE 8 11 1007.2 - 0.0 - - 10 - - - -
23/05:00pm 31.3 NNE 8 12 1007.1 - 0.0 - - 10 - - - -
23/04:30pm 31.3 NNE 10 14 1006.9 - 0.0 - - 10 - - - -
23/04:00pm 31.4 NNE 9 14 1006.9 - 0.0 - Partly cloudy 10 - - - -
23/03:30pm 31.8 NNE 8 13 1006.9 - 0.0 - Partly cloudy 10 - - - -
23/03:00pm 31.9 NNE 7 10 1007.0 - 0.0 - Cloudy 10 - - - -
23/02:30pm 32.3 NNE 9 11 1007.2 - 0.0 - Partly cloudy 10 - - - -
23/02:00pm 32.7 N 9 14 1007.3 - 0.0 - Partly cloudy 10 - - - -
23/01:30pm 32.4 NNE 9 15 1007.7 - 0.0 - Partly cloudy 10 - - - -
23/01:00pm 32.5 NNE 9 13 1008.2 - 0.0 - Partly cloudy 10 - - - -
23/12:30pm 32.5 NNE 9 12 1008.5 - 0.0 - Partly cloudy 10 - - - -
23/12:00pm 32.2 N 9 11 1008.9 - 0.0 - Cloudy 10 - - - -
23/11:30am 31.7 N 9 13 1009.3 - 0.0 - Partly cloudy 10 - - - -
23/11:00am 31.6 NNE 9 14 1009.5 - 0.0 - Partly cloudy 10 - - - -
23/10:30am 30.8 N 10 13 1009.7 - 0.0 - Partly cloudy 10 - - - -
23/10:00am 30.6 N 7 11 1009.9 - 0.0 - Partly cloudy 10 - - - -
23/09:30am 29.8 N 10 13 1010.0 - 0.0 - Partly cloudy 10 - - - -
23/09:00am 29.9 N 9 13 1009.8 - 0.0 - Mostly clear 10 - - - -
23/08:42am 29.2 N 9 12 1009.7 - 0.0 - Partly cloudy 10 - - - -
23/08:30am 29.5 N 8 11 1009.7 - 0.0 - Partly cloudy 10 - - - -
23/08:10am 29.1 N 8 12 1009.5 - 0.0 - Partly cloudy 10 - - - -
23/08:00am 29.1 N 6 9 1009.4 - 0.0 - Partly cloudy 10 - - - -
23/07:30am 28.1 N 4 7 1009.1 - 0.0 - - 10 - - - -
23/07:00am 26.5 NNE 3 5 1008.8 - 0.0 - - - - - - -
23/06:30am 25.6 NE 3 4 1008.5 - 0.0 - Partly cloudy - - - - -
23/06:00am 25.2 CALM 0 4 1008.3 - 0.0 - - - - - - -
23/05:30am 25.0 CALM 0 0 1008.0 - 0.0 - - - - - - -
23/05:00am 25.3 CALM 0 0 1007.6 - 0.0 - - - - - - -
23/04:30am 25.4 CALM 0 0 1007.4 - 0.0 - - - - - - -
23/04:00am 25.6 E 2 3 1007.3 - 0.0 - - - - - - -
23/03:30am 25.9 ENE 4 4 1007.3 - 0.0 - - - - - - -
23/03:00am 26.2 NE 1 3 1007.3 - 0.0 - - 10 - - - -
23/02:30am 26.2 ENE 4 5 1007.7 - 0.0 - Partly cloudy 10 - - - -
23/02:00am 26.4 NE 2 3 1008.0 - 0.0 - Partly cloudy 10 - - - -
23/01:30am 26.6 CALM 0 0 1008.2 - 0.0 - - 10 - - - -
23/01:00am 26.3 CALM 0 0 1008.7 - 0.0 - - 10 - - - -
23/12:30am 26.4 CALM 0 0 1008.9 - 0.0 - - 10 - - - -
23/12:00am 26.6 CALM 0 0 1009.1 - 0.0 - - 10 - - - -
 
Date/Time
CST
Temp
°C
Wind Pressure Rain since
9am
mm
Weather Cloud Vis
km
Sea
Height
m
Swell
Dir  Spd
kts
Gust
kts
hPa Trend Height
m
Period
s
Dir
22/11:30pm 26.8 CALM 0 0 1009.3 - 0.0 - - 10 - - - -
22/11:00pm 27.0 CALM 0 0 1009.5 - 0.0 - - 10 - - - -
22/10:30pm 27.8 CALM 0 0 1009.5 - 0.0 - - 10 - - - -
22/10:00pm 27.9 ENE 4 5 1009.4 - 0.0 - - 10 - - - -
22/09:30pm 28.4 NE 3 4 1009.1 - 0.0 - - 10 - - - -
22/09:00pm 28.8 NE 4 6 1008.8 - 0.0 - Partly cloudy 10 - - - -
22/08:30pm 29.0 ENE 4 6 1008.4 - 0.0 - Partly cloudy 10 - - - -
22/08:00pm 29.1 ENE 2 6 1008.2 - 0.0 - Partly cloudy 10 - - - -
22/07:30pm 29.3 CALM 0 0 1007.7 - 0.0 - - 10 - - - -
22/07:00pm 30.6 CALM 0 0 1007.3 - 0.0 - - 10 - - - -
22/06:30pm 32.3 SSW 4 6 1007.0 - 0.0 - - 10 - - - -
22/06:00pm 33.0 SSW 4 6 1006.9 - 0.0 - - 10 - - - -
22/05:30pm 32.9 S 5 7 1006.6 - 0.0 - - 10 - - - -
22/05:00pm 33.1 SSW 6 9 1006.1 - 0.0 - - 10 - - - -
22/04:30pm 32.9 SW 5 8 1006.2 - 0.0 - - 10 - - - -
22/04:00pm 33.0 SW 5 9 1006.4 - 0.0 - - 10 - - - -
22/03:30pm 33.1 WSW 7 10 1006.6 - 0.0 - - 10 - - - -
22/03:00pm 32.9 W 6 8 1006.9 - 0.0 - - 10 - - - -
22/02:30pm 32.8 W 7 10 1007.2 - 0.0 - - 10 - - - -
22/02:00pm 32.6 WNW 7 11 1007.3 - 0.0 - - 10 - - - -
22/01:30pm 32.1 W 6 12 1007.6 - 0.0 - - 10 - - - -
22/01:00pm 31.9 WSW 5 8 1008.1 - 0.0 - - 10 - - - -
22/12:30pm 31.5 SW 7 11 1008.4 - 0.0 - - 10 - - - -
22/12:00pm 30.8 W 7 10 1008.8 - 0.0 - - 10 - - - -
22/11:30am 31.1 WSW 7 10 1008.9 - 0.0 - - 10 - - - -
22/11:00am 30.6 W 8 12 1009.1 - 0.0 - - 10 - - - -
22/10:30am 30.4 WNW 9 12 1009.4 - 0.0 - - 10 - - - -
22/10:00am 30.5 WNW 8 13 1009.4 - 0.0 - - 10 - - - -
22/09:30am 30.0 WNW 9 11 1009.6 - 0.0 - - 10 - - - -
22/09:00am 29.2 NW 10 13 1009.6 - 0.2 - Mostly clear 10 - - - -
22/08:30am 28.4 NW 8 10 1009.6 - 0.2 - - 10 - - - -
22/08:00am 27.9 NW 7 10 1009.5 - 0.2 - - 10 - - - -
22/07:30am 27.6 NNW 7 8 1009.2 - 0.2 - - 10 - - - -
22/07:00am 27.4 NNW 6 9 1008.9 - 0.2 - - 10 - - - -
22/06:30am 27.1 NNW 5 7 1008.6 - 0.2 - - 10 - - - -
22/06:00am 26.0 ENE 1 7 1008.3 - 0.2 - Mostly cloudy 10 - - - -
22/05:30am 25.5 CALM 0 0 1008.2 - 0.2 - Partly cloudy 10 - - - -
22/05:00am 25.5 CALM 0 0 1008.0 - 0.2 - Cloudy 10 - - - -
22/04:30am 25.3 CALM 0 0 1007.8 - 0.2 - Cloudy 10 - - - -
22/04:00am 25.1 CALM 0 0 1007.5 - 0.2 - Cloudy 10 - - - -
22/03:30am 24.9 CALM 0 0 1007.4 - 0.2 - Partly cloudy 10 - - - -
22/03:00am 25.1 CALM 0 0 1007.4 - 0.2 - Mostly clear 10 - - - -
22/02:30am 25.4 CALM 0 0 1007.6 - 0.2 - Partly cloudy 10 - - - -
22/02:00am 25.3 CALM 0 0 1007.8 - 0.2 - Partly cloudy 10 - - - -
22/01:30am 25.3 CALM 0 0 1007.9 - 0.2 - Cloudy 10 - - - -
22/01:00am 25.3 CALM 0 0 1008.1 - 0.2 - Cloudy 10 - - - -
22/12:30am 25.2 CALM 0 0 1008.2 - 0.2 - Partly cloudy 10 - - - -
22/12:00am 25.5 CALM 0 0 1008.6 - 0.2 - - 10 - - - -
 
Date/Time
CST
Temp
°C
Wind Pressure Rain since
9am
mm
Weather Cloud Vis
km
Sea
Height
m
Swell
Dir  Spd
kts
Gust
kts
hPa Trend Height
m
Period
s
Dir
21/11:30pm 26.0 CALM 0 0 1008.9 - 0.2 - Partly cloudy 10 - - - -
21/11:00pm 25.7 CALM 0 0 1009.3 - 0.2 - Cloudy 10 - - - -
21/10:30pm 25.5 CALM 0 0 1009.3 - 0.2 - Partly cloudy 10 - - - -
21/10:00pm 25.6 CALM 0 0 1009.1 - 0.2 - Partly cloudy 10 - - - -
21/09:30pm 25.6 CALM 0 0 1008.8 - 0.2 - - 10 - - - -
21/09:00pm 25.8 CALM 0 0 1008.6 - 0.2 - - 10 - - - -
21/08:30pm 26.2 CALM 0 0 1008.4 - 0.2 - - 10 - - - -
21/08:00pm 26.6 CALM 0 0 1008.1 - 0.2 - - 10 - - - -

Other Formats:

Comma delimited format used in spreadsheet applications
http://www.bom.gov.au/fwo/IDD60701/IDD60701.94153.axf

JavaScript Object Notation format (JSON) in row-major order
http://www.bom.gov.au/fwo/IDD60701/IDD60701.94153.json